sensor_id;sensor_type;location;lat;lon;timestamp;temperature;humidity
10149;DHT22;5115;50.920;6.376;2023-07-08T00:00:28;22.90;99.90
10149;DHT22;5115;50.920;6.376;2023-07-08T00:02:54;23.00;99.90
10149;DHT22;5115;50.920;6.376;2023-07-08T00:05:21;23.10;99.90
10149;DHT22;5115;50.920;6.376;2023-07-08T00:07:47;23.00;99.90
10149;DHT22;5115;50.920;6.376;2023-07-08T00:10:20;23.00;99.90
10149;DHT22;5115;50.920;6.376;2023-07-08T00:12:49;23.00;99.90
10149;DHT22;5115;50.920;6.376;2023-07-08T00:15:15;23.10;99.90
10149;DHT22;5115;50.920;6.376;2023-07-08T00:17:41;23.10;99.90
10149;DHT22;5115;50.920;6.376;2023-07-08T00:20:17;23.10;99.90
10149;DHT22;5115;50.920;6.376;2023-07-08T00:22:44;23.10;99.90
10149;DHT22;5115;50.920;6.376;2023-07-08T00:25:13;23.00;99.90
10149;DHT22;5115;50.920;6.376;2023-07-08T00:27:39;22.90;99.90
10149;DHT22;5115;50.920;6.376;2023-07-08T00:30:31;22.90;99.90
10149;DHT22;5115;50.920;6.376;2023-07-08T00:32:58;22.90;99.90
10149;DHT22;5115;50.920;6.376;2023-07-08T00:35:39;22.80;99.90
10149;DHT22;5115;50.920;6.376;2023-07-08T00:43:50;22.80;99.90
10149;DHT22;5115;50.920;6.376;2023-07-08T00:46:28;22.80;99.90
10149;DHT22;5115;50.920;6.376;2023-07-08T00:51:33;22.90;99.90
10149;DHT22;5115;50.920;6.376;2023-07-08T00:53:59;23.00;99.90
10149;DHT22;5115;50.920;6.376;2023-07-08T00:56:33;22.90;99.90
10149;DHT22;5115;50.920;6.376;2023-07-08T00:59:03;22.90;99.90
10149;DHT22;5115;50.920;6.376;2023-07-08T01:01:31;22.90;99.90
10149;DHT22;5115;50.920;6.376;2023-07-08T01:04:02;23.00;99.90
10149;DHT22;5115;50.920;6.376;2023-07-08T01:06:32;23.10;99.10
10149;DHT22;5115;50.920;6.376;2023-07-08T01:09:02;23.10;98.30
10149;DHT22;5115;50.920;6.376;2023-07-08T01:11:28;23.20;97.30
10149;DHT22;5115;50.920;6.376;2023-07-08T01:13:55;23.30;96.80
10149;DHT22;5115;50.920;6.376;2023-07-08T01:16:22;23.30;96.90
10149;DHT22;5115;50.920;6.376;2023-07-08T01:18:47;23.40;96.70
10149;DHT22;5115;50.920;6.376;2023-07-08T01:24:00;23.30;96.40
10149;DHT22;5115;50.920;6.376;2023-07-08T01:26:26;23.20;96.10
10149;DHT22;5115;50.920;6.376;2023-07-08T01:28:53;23.40;96.40
10149;DHT22;5115;50.920;6.376;2023-07-08T01:31:21;23.30;96.50
10149;DHT22;5115;50.920;6.376;2023-07-08T01:33:47;23.20;96.30
10149;DHT22;5115;50.920;6.376;2023-07-08T01:36:13;23.30;96.20
10149;DHT22;5115;50.920;6.376;2023-07-08T01:38:39;23.40;96.10
10149;DHT22;5115;50.920;6.376;2023-07-08T01:41:06;23.40;95.90
10149;DHT22;5115;50.920;6.376;2023-07-08T01:43:36;23.40;95.80
10149;DHT22;5115;50.920;6.376;2023-07-08T01:46:02;23.50;95.80
10149;DHT22;5115;50.920;6.376;2023-07-08T01:48:33;23.50;95.70
10149;DHT22;5115;50.920;6.376;2023-07-08T01:51:04;23.50;96.20
10149;DHT22;5115;50.920;6.376;2023-07-08T01:53:32;23.50;96.00
10149;DHT22;5115;50.920;6.376;2023-07-08T01:55:58;23.40;96.00
10149;DHT22;5115;50.920;6.376;2023-07-08T01:58:24;23.40;96.00
10149;DHT22;5115;50.920;6.376;2023-07-08T02:00:50;23.40;96.10
10149;DHT22;5115;50.920;6.376;2023-07-08T02:03:16;23.50;96.40
10149;DHT22;5115;50.920;6.376;2023-07-08T02:05:42;23.40;96.10
10149;DHT22;5115;50.920;6.376;2023-07-08T02:08:08;23.40;96.20
10149;DHT22;5115;50.920;6.376;2023-07-08T02:10:33;23.40;96.20
10149;DHT22;5115;50.920;6.376;2023-07-08T02:12:59;23.30;96.10
10149;DHT22;5115;50.920;6.376;2023-07-08T02:15:26;23.30;96.00
10149;DHT22;5115;50.920;6.376;2023-07-08T02:17:51;23.30;95.90
10149;DHT22;5115;50.920;6.376;2023-07-08T02:20:18;23.40;95.90
10149;DHT22;5115;50.920;6.376;2023-07-08T02:22:43;23.40;96.10
10149;DHT22;5115;50.920;6.376;2023-07-08T02:25:09;23.40;95.40
10149;DHT22;5115;50.920;6.376;2023-07-08T02:27:35;23.40;95.70
10149;DHT22;5115;50.920;6.376;2023-07-08T02:30:01;23.30;95.70
10149;DHT22;5115;50.920;6.376;2023-07-08T02:32:27;23.30;95.60
10149;DHT22;5115;50.920;6.376;2023-07-08T02:34:52;23.40;95.80
10149;DHT22;5115;50.920;6.376;2023-07-08T02:37:18;23.30;95.80
10149;DHT22;5115;50.920;6.376;2023-07-08T02:39:43;23.30;95.90
10149;DHT22;5115;50.920;6.376;2023-07-08T02:42:09;23.30;96.10
10149;DHT22;5115;50.920;6.376;2023-07-08T02:44:34;23.20;96.20
10149;DHT22;5115;50.920;6.376;2023-07-08T02:47:00;23.20;96.30
10149;DHT22;5115;50.920;6.376;2023-07-08T02:49:26;23.20;96.30
10149;DHT22;5115;50.920;6.376;2023-07-08T02:51:51;23.10;96.20
10149;DHT22;5115;50.920;6.376;2023-07-08T02:54:18;23.00;96.30
10149;DHT22;5115;50.920;6.376;2023-07-08T02:56:43;23.00;96.50
10149;DHT22;5115;50.920;6.376;2023-07-08T02:59:09;22.90;96.80
10149;DHT22;5115;50.920;6.376;2023-07-08T03:01:34;22.90;96.50
10149;DHT22;5115;50.920;6.376;2023-07-08T03:04:07;22.90;96.70
10149;DHT22;5115;50.920;6.376;2023-07-08T03:06:36;22.80;96.50
10149;DHT22;5115;50.920;6.376;2023-07-08T03:09:02;22.80;96.40
10149;DHT22;5115;50.920;6.376;2023-07-08T03:11:27;22.80;96.40
10149;DHT22;5115;50.920;6.376;2023-07-08T03:13:53;22.80;96.70
10149;DHT22;5115;50.920;6.376;2023-07-08T03:16:18;22.80;96.60
10149;DHT22;5115;50.920;6.376;2023-07-08T03:18:44;22.70;96.80
10149;DHT22;5115;50.920;6.376;2023-07-08T03:21:14;22.70;97.50
10149;DHT22;5115;50.920;6.376;2023-07-08T03:23:40;22.70;97.00
10149;DHT22;5115;50.920;6.376;2023-07-08T03:26:06;22.70;97.10
10149;DHT22;5115;50.920;6.376;2023-07-08T03:28:31;22.60;96.80
10149;DHT22;5115;50.920;6.376;2023-07-08T03:30:57;22.50;97.00
10149;DHT22;5115;50.920;6.376;2023-07-08T03:33:23;22.60;97.30
10149;DHT22;5115;50.920;6.376;2023-07-08T03:35:49;22.40;96.70
10149;DHT22;5115;50.920;6.376;2023-07-08T03:38:15;22.50;97.20
10149;DHT22;5115;50.920;6.376;2023-07-08T03:40:41;22.50;97.00
10149;DHT22;5115;50.920;6.376;2023-07-08T03:43:06;22.50;97.50
10149;DHT22;5115;50.920;6.376;2023-07-08T03:45:32;22.40;97.00
10149;DHT22;5115;50.920;6.376;2023-07-08T03:47:57;22.50;97.40
10149;DHT22;5115;50.920;6.376;2023-07-08T03:50:25;22.50;97.30
10149;DHT22;5115;50.920;6.376;2023-07-08T03:52:53;22.40;96.90
10149;DHT22;5115;50.920;6.376;2023-07-08T03:55:19;22.40;96.90
10149;DHT22;5115;50.920;6.376;2023-07-08T03:57:45;22.40;97.10
10149;DHT22;5115;50.920;6.376;2023-07-08T04:00:11;22.50;97.10
10149;DHT22;5115;50.920;6.376;2023-07-08T04:02:41;22.40;96.80
10149;DHT22;5115;50.920;6.376;2023-07-08T04:05:12;22.30;96.90
10149;DHT22;5115;50.920;6.376;2023-07-08T04:07:38;22.30;97.00
10149;DHT22;5115;50.920;6.376;2023-07-08T04:10:04;22.30;97.10
10149;DHT22;5115;50.920;6.376;2023-07-08T04:12:29;22.30;97.20
10149;DHT22;5115;50.920;6.376;2023-07-08T04:14:55;22.20;97.20
10149;DHT22;5115;50.920;6.376;2023-07-08T04:17:20;22.20;97.30
10149;DHT22;5115;50.920;6.376;2023-07-08T04:19:48;22.20;97.40
10149;DHT22;5115;50.920;6.376;2023-07-08T04:22:14;22.20;97.60
10149;DHT22;5115;50.920;6.376;2023-07-08T04:24:39;22.20;97.40
10149;DHT22;5115;50.920;6.376;2023-07-08T04:27:05;22.10;97.40
10149;DHT22;5115;50.920;6.376;2023-07-08T04:29:31;22.20;97.60
10149;DHT22;5115;50.920;6.376;2023-07-08T04:31:56;22.10;97.60
10149;DHT22;5115;50.920;6.376;2023-07-08T04:34:22;22.10;97.80
10149;DHT22;5115;50.920;6.376;2023-07-08T04:36:47;22.00;97.70
10149;DHT22;5115;50.920;6.376;2023-07-08T04:39:13;22.10;98.10
10149;DHT22;5115;50.920;6.376;2023-07-08T04:41:40;22.30;98.20
10149;DHT22;5115;50.920;6.376;2023-07-08T04:44:10;22.30;97.80
10149;DHT22;5115;50.920;6.376;2023-07-08T04:46:56;22.50;98.00
10149;DHT22;5115;50.920;6.376;2023-07-08T04:49:23;22.70;98.10
10149;DHT22;5115;50.920;6.376;2023-07-08T04:51:53;22.90;97.80
10149;DHT22;5115;50.920;6.376;2023-07-08T04:54:18;22.90;97.90
10149;DHT22;5115;50.920;6.376;2023-07-08T04:56:47;22.90;97.80
10149;DHT22;5115;50.920;6.376;2023-07-08T04:59:17;23.10;97.80
10149;DHT22;5115;50.920;6.376;2023-07-08T05:01:43;23.10;97.70
10149;DHT22;5115;50.920;6.376;2023-07-08T05:04:12;23.10;97.40
10149;DHT22;5115;50.920;6.376;2023-07-08T05:06:38;23.20;97.50
10149;DHT22;5115;50.920;6.376;2023-07-08T05:09:04;23.00;97.40
10149;DHT22;5115;50.920;6.376;2023-07-08T05:11:32;23.00;97.90
10149;DHT22;5115;50.920;6.376;2023-07-08T05:13:58;22.90;97.80
10149;DHT22;5115;50.920;6.376;2023-07-08T05:16:24;23.00;98.20
10149;DHT22;5115;50.920;6.376;2023-07-08T05:18:50;23.20;98.20
10149;DHT22;5115;50.920;6.376;2023-07-08T05:21:17;23.40;98.00
10149;DHT22;5115;50.920;6.376;2023-07-08T05:23:44;23.60;97.50
10149;DHT22;5115;50.920;6.376;2023-07-08T05:26:11;23.70;97.40
10149;DHT22;5115;50.920;6.376;2023-07-08T05:28:36;23.90;97.10
10149;DHT22;5115;50.920;6.376;2023-07-08T05:31:02;23.90;97.00
10149;DHT22;5115;50.920;6.376;2023-07-08T05:33:29;24.10;97.40
10149;DHT22;5115;50.920;6.376;2023-07-08T05:35:54;24.40;97.30
10149;DHT22;5115;50.920;6.376;2023-07-08T05:38:20;24.60;96.50
10149;DHT22;5115;50.920;6.376;2023-07-08T05:41:04;24.50;96.70
10149;DHT22;5115;50.920;6.376;2023-07-08T05:43:29;24.90;96.30
10149;DHT22;5115;50.920;6.376;2023-07-08T05:45:59;24.90;96.80
10149;DHT22;5115;50.920;6.376;2023-07-08T05:48:25;24.70;95.90
10149;DHT22;5115;50.920;6.376;2023-07-08T05:50:51;25.00;96.00
10149;DHT22;5115;50.920;6.376;2023-07-08T05:53:18;25.00;95.90
10149;DHT22;5115;50.920;6.376;2023-07-08T05:55:44;24.90;95.90
10149;DHT22;5115;50.920;6.376;2023-07-08T05:58:10;24.90;96.40
10149;DHT22;5115;50.920;6.376;2023-07-08T06:00:36;25.10;96.40
10149;DHT22;5115;50.920;6.376;2023-07-08T06:03:02;25.20;96.10
10149;DHT22;5115;50.920;6.376;2023-07-08T06:05:28;25.70;95.90
10149;DHT22;5115;50.920;6.376;2023-07-08T06:07:53;25.60;95.40
10149;DHT22;5115;50.920;6.376;2023-07-08T06:10:19;25.10;95.30
10149;DHT22;5115;50.920;6.376;2023-07-08T06:12:44;25.70;95.50
10149;DHT22;5115;50.920;6.376;2023-07-08T06:15:10;25.90;95.50
10149;DHT22;5115;50.920;6.376;2023-07-08T06:17:37;25.90;95.70
10149;DHT22;5115;50.920;6.376;2023-07-08T06:20:03;26.30;95.50
10149;DHT22;5115;50.920;6.376;2023-07-08T06:22:29;26.70;95.60
10149;DHT22;5115;50.920;6.376;2023-07-08T06:24:54;27.00;94.80
10149;DHT22;5115;50.920;6.376;2023-07-08T06:27:20;27.10;95.00
10149;DHT22;5115;50.920;6.376;2023-07-08T06:29:45;27.20;94.90
10149;DHT22;5115;50.920;6.376;2023-07-08T06:32:10;27.50;94.40
10149;DHT22;5115;50.920;6.376;2023-07-08T06:34:36;27.60;94.40
10149;DHT22;5115;50.920;6.376;2023-07-08T06:37:02;27.90;94.20
10149;DHT22;5115;50.920;6.376;2023-07-08T06:39:27;28.30;93.90
10149;DHT22;5115;50.920;6.376;2023-07-08T06:41:53;28.70;94.10
10149;DHT22;5115;50.920;6.376;2023-07-08T06:44:18;28.90;93.90
10149;DHT22;5115;50.920;6.376;2023-07-08T06:46:44;28.80;94.10
10149;DHT22;5115;50.920;6.376;2023-07-08T06:49:09;28.40;94.40
10149;DHT22;5115;50.920;6.376;2023-07-08T06:51:37;28.20;95.40
10149;DHT22;5115;50.920;6.376;2023-07-08T06:54:02;28.20;95.00
10149;DHT22;5115;50.920;6.376;2023-07-08T06:56:30;28.30;95.20
10149;DHT22;5115;50.920;6.376;2023-07-08T06:58:56;28.50;95.10
10149;DHT22;5115;50.920;6.376;2023-07-08T07:01:22;28.70;94.00
10149;DHT22;5115;50.920;6.376;2023-07-08T07:03:47;28.30;94.20
10149;DHT22;5115;50.920;6.376;2023-07-08T07:06:13;28.80;95.10
10149;DHT22;5115;50.920;6.376;2023-07-08T07:08:39;28.90;94.80
10149;DHT22;5115;50.920;6.376;2023-07-08T07:11:04;29.00;94.60
10149;DHT22;5115;50.920;6.376;2023-07-08T07:13:30;29.10;94.10
10149;DHT22;5115;50.920;6.376;2023-07-08T07:15:55;29.50;93.90
10149;DHT22;5115;50.920;6.376;2023-07-08T07:18:21;29.70;93.90
10149;DHT22;5115;50.920;6.376;2023-07-08T07:20:49;30.00;94.30
10149;DHT22;5115;50.920;6.376;2023-07-08T07:23:16;30.00;94.10
10149;DHT22;5115;50.920;6.376;2023-07-08T07:25:41;30.10;94.20
10149;DHT22;5115;50.920;6.376;2023-07-08T07:28:07;30.30;94.20
10149;DHT22;5115;50.920;6.376;2023-07-08T07:30:33;30.40;93.50
10149;DHT22;5115;50.920;6.376;2023-07-08T07:32:59;30.10;93.10
10149;DHT22;5115;50.920;6.376;2023-07-08T07:35:25;30.10;93.80
10149;DHT22;5115;50.920;6.376;2023-07-08T07:37:51;30.30;94.20
10149;DHT22;5115;50.920;6.376;2023-07-08T07:40:16;30.20;93.00
10149;DHT22;5115;50.920;6.376;2023-07-08T07:42:44;30.20;94.10
10149;DHT22;5115;50.920;6.376;2023-07-08T07:45:10;30.60;93.70
10149;DHT22;5115;50.920;6.376;2023-07-08T07:47:36;30.60;92.60
10149;DHT22;5115;50.920;6.376;2023-07-08T07:50:03;30.70;92.50
10149;DHT22;5115;50.920;6.376;2023-07-08T07:52:29;30.50;92.40
10149;DHT22;5115;50.920;6.376;2023-07-08T07:54:55;30.40;92.50
10149;DHT22;5115;50.920;6.376;2023-07-08T07:57:21;30.50;92.60
10149;DHT22;5115;50.920;6.376;2023-07-08T07:59:47;30.60;93.10
10149;DHT22;5115;50.920;6.376;2023-07-08T08:02:14;31.10;93.10
10149;DHT22;5115;50.920;6.376;2023-07-08T08:04:40;31.00;93.10
10149;DHT22;5115;50.920;6.376;2023-07-08T08:07:05;30.90;93.40
10149;DHT22;5115;50.920;6.376;2023-07-08T08:09:31;30.90;92.90
10149;DHT22;5115;50.920;6.376;2023-07-08T08:11:56;31.40;92.70
10149;DHT22;5115;50.920;6.376;2023-07-08T08:14:22;31.30;92.80
10149;DHT22;5115;50.920;6.376;2023-07-08T08:16:48;31.40;92.50
10149;DHT22;5115;50.920;6.376;2023-07-08T08:19:13;31.20;92.60
10149;DHT22;5115;50.920;6.376;2023-07-08T08:21:39;31.30;92.40
10149;DHT22;5115;50.920;6.376;2023-07-08T08:24:05;31.30;92.90
10149;DHT22;5115;50.920;6.376;2023-07-08T08:26:30;31.60;93.40
10149;DHT22;5115;50.920;6.376;2023-07-08T08:28:56;31.70;92.50
10149;DHT22;5115;50.920;6.376;2023-07-08T08:31:22;31.40;92.90
10149;DHT22;5115;50.920;6.376;2023-07-08T08:33:47;31.30;93.60
10149;DHT22;5115;50.920;6.376;2023-07-08T08:36:13;31.70;93.90
10149;DHT22;5115;50.920;6.376;2023-07-08T08:38:38;31.50;93.30
10149;DHT22;5115;50.920;6.376;2023-07-08T08:41:14;31.40;94.00
10149;DHT22;5115;50.920;6.376;2023-07-08T08:43:41;31.50;94.20
10149;DHT22;5115;50.920;6.376;2023-07-08T08:51:25;31.80;93.60
10149;DHT22;5115;50.920;6.376;2023-07-08T08:53:53;31.80;93.50
10149;DHT22;5115;50.920;6.376;2023-07-08T08:56:25;31.90;93.70
10149;DHT22;5115;50.920;6.376;2023-07-08T09:01:26;32.20;93.80
10149;DHT22;5115;50.920;6.376;2023-07-08T09:06:29;32.50;93.30
10149;DHT22;5115;50.920;6.376;2023-07-08T09:08:57;32.40;93.10
10149;DHT22;5115;50.920;6.376;2023-07-08T09:14:06;32.80;93.30
10149;DHT22;5115;50.920;6.376;2023-07-08T09:19:25;32.40;92.30
10149;DHT22;5115;50.920;6.376;2023-07-08T09:21:59;32.20;92.20
10149;DHT22;5115;50.920;6.376;2023-07-08T09:24:43;32.20;92.20
10149;DHT22;5115;50.920;6.376;2023-07-08T09:27:10;32.60;92.50
10149;DHT22;5115;50.920;6.376;2023-07-08T09:29:35;32.80;91.90
10149;DHT22;5115;50.920;6.376;2023-07-08T09:32:15;33.10;92.60
10149;DHT22;5115;50.920;6.376;2023-07-08T09:35:04;33.40;91.00
10149;DHT22;5115;50.920;6.376;2023-07-08T09:37:37;33.70;91.30
10149;DHT22;5115;50.920;6.376;2023-07-08T09:40:21;33.70;91.00
10149;DHT22;5115;50.920;6.376;2023-07-08T09:42:51;34.00;90.90
10149;DHT22;5115;50.920;6.376;2023-07-08T09:45:20;34.00;91.40
10149;DHT22;5115;50.920;6.376;2023-07-08T09:47:46;34.20;90.60
10149;DHT22;5115;50.920;6.376;2023-07-08T09:52:43;33.60;90.90
10149;DHT22;5115;50.920;6.376;2023-07-08T09:55:11;33.40;90.20
10149;DHT22;5115;50.920;6.376;2023-07-08T09:57:38;33.70;90.60
10149;DHT22;5115;50.920;6.376;2023-07-08T10:00:50;33.80;90.00
10149;DHT22;5115;50.920;6.376;2023-07-08T10:03:20;34.00;90.50
10149;DHT22;5115;50.920;6.376;2023-07-08T10:05:48;33.60;90.10
10149;DHT22;5115;50.920;6.376;2023-07-08T10:08:20;34.00;90.40
10149;DHT22;5115;50.920;6.376;2023-07-08T10:11:20;34.40;91.50
10149;DHT22;5115;50.920;6.376;2023-07-08T10:13:50;34.80;90.10
10149;DHT22;5115;50.920;6.376;2023-07-08T10:16:35;34.80;90.30
10149;DHT22;5115;50.920;6.376;2023-07-08T10:19:00;35.00;88.80
10149;DHT22;5115;50.920;6.376;2023-07-08T10:27:28;34.70;88.80
10149;DHT22;5115;50.920;6.376;2023-07-08T10:35:27;34.90;88.50
10149;DHT22;5115;50.920;6.376;2023-07-08T10:40:55;35.30;87.70
10149;DHT22;5115;50.920;6.376;2023-07-08T10:43:43;35.60;86.20
10149;DHT22;5115;50.920;6.376;2023-07-08T10:51:48;35.90;82.90
10149;DHT22;5115;50.920;6.376;2023-07-08T11:00:13;36.30;82.30
10149;DHT22;5115;50.920;6.376;2023-07-08T11:06:22;35.80;80.20
10149;DHT22;5115;50.920;6.376;2023-07-08T11:08:57;35.30;79.30
10149;DHT22;5115;50.920;6.376;2023-07-08T11:11:35;35.40;78.90
10149;DHT22;5115;50.920;6.376;2023-07-08T11:14:10;35.40;79.40
10149;DHT22;5115;50.920;6.376;2023-07-08T11:16:45;35.60;79.10
10149;DHT22;5115;50.920;6.376;2023-07-08T11:19:34;35.80;78.90
10149;DHT22;5115;50.920;6.376;2023-07-08T11:22:05;36.00;79.40
10149;DHT22;5115;50.920;6.376;2023-07-08T11:24:45;36.00;79.30
10149;DHT22;5115;50.920;6.376;2023-07-08T11:32:36;35.50;77.10
10149;DHT22;5115;50.920;6.376;2023-07-08T11:35:05;35.50;76.80
10149;DHT22;5115;50.920;6.376;2023-07-08T11:37:31;35.40;76.10
10149;DHT22;5115;50.920;6.376;2023-07-08T11:40:05;35.40;76.00
10149;DHT22;5115;50.920;6.376;2023-07-08T11:42:40;35.30;74.50
10149;DHT22;5115;50.920;6.376;2023-07-08T11:47:45;35.50;76.80
10149;DHT22;5115;50.920;6.376;2023-07-08T11:50:29;35.90;76.00
10149;DHT22;5115;50.920;6.376;2023-07-08T11:55:35;35.80;75.70
10149;DHT22;5115;50.920;6.376;2023-07-08T11:58:01;35.60;74.10
10149;DHT22;5115;50.920;6.376;2023-07-08T12:00:31;35.70;74.90
10149;DHT22;5115;50.920;6.376;2023-07-08T12:03:18;35.90;75.50
10149;DHT22;5115;50.920;6.376;2023-07-08T12:05:44;35.70;75.80
10149;DHT22;5115;50.920;6.376;2023-07-08T12:08:13;35.70;77.10
10149;DHT22;5115;50.920;6.376;2023-07-08T12:10:48;35.30;75.90
10149;DHT22;5115;50.920;6.376;2023-07-08T12:13:17;35.30;76.40
10149;DHT22;5115;50.920;6.376;2023-07-08T12:15:43;35.50;75.20
10149;DHT22;5115;50.920;6.376;2023-07-08T12:20:37;35.50;74.40
10149;DHT22;5115;50.920;6.376;2023-07-08T12:23:10;35.40;74.20
10149;DHT22;5115;50.920;6.376;2023-07-08T12:25:36;35.10;75.40
10149;DHT22;5115;50.920;6.376;2023-07-08T12:28:02;34.80;75.40
10149;DHT22;5115;50.920;6.376;2023-07-08T12:30:31;34.80;75.30
10149;DHT22;5115;50.920;6.376;2023-07-08T12:32:58;34.90;75.80
10149;DHT22;5115;50.920;6.376;2023-07-08T12:35:31;35.10;74.30
10149;DHT22;5115;50.920;6.376;2023-07-08T12:38:05;35.00;75.00
10149;DHT22;5115;50.920;6.376;2023-07-08T12:40:34;35.10;74.60
10149;DHT22;5115;50.920;6.376;2023-07-08T12:43:00;34.90;74.70
10149;DHT22;5115;50.920;6.376;2023-07-08T12:45:27;34.50;73.40
10149;DHT22;5115;50.920;6.376;2023-07-08T12:47:53;34.30;74.40
10149;DHT22;5115;50.920;6.376;2023-07-08T12:50:18;34.50;74.40
10149;DHT22;5115;50.920;6.376;2023-07-08T12:52:45;34.40;75.40
10149;DHT22;5115;50.920;6.376;2023-07-08T12:55:13;34.60;74.00
10149;DHT22;5115;50.920;6.376;2023-07-08T12:57:47;34.70;74.80
10149;DHT22;5115;50.920;6.376;2023-07-08T13:00:16;34.80;74.80
10149;DHT22;5115;50.920;6.376;2023-07-08T13:02:46;34.80;73.80
10149;DHT22;5115;50.920;6.376;2023-07-08T13:05:13;34.80;74.30
10149;DHT22;5115;50.920;6.376;2023-07-08T13:07:41;35.00;74.10
10149;DHT22;5115;50.920;6.376;2023-07-08T13:10:15;34.90;74.90
10149;DHT22;5115;50.920;6.376;2023-07-08T13:12:43;35.00;74.80
10149;DHT22;5115;50.920;6.376;2023-07-08T13:15:16;35.10;73.90
10149;DHT22;5115;50.920;6.376;2023-07-08T13:17:43;35.10;73.80
10149;DHT22;5115;50.920;6.376;2023-07-08T13:20:14;35.20;73.90
10149;DHT22;5115;50.920;6.376;2023-07-08T13:22:40;35.00;74.40
10149;DHT22;5115;50.920;6.376;2023-07-08T13:25:14;35.20;74.00
10149;DHT22;5115;50.920;6.376;2023-07-08T13:27:42;35.20;73.40
10149;DHT22;5115;50.920;6.376;2023-07-08T13:30:19;35.10;75.20
10149;DHT22;5115;50.920;6.376;2023-07-08T13:32:51;34.90;75.10
10149;DHT22;5115;50.920;6.376;2023-07-08T13:35:40;35.00;74.90
10149;DHT22;5115;50.920;6.376;2023-07-08T13:38:15;35.30;74.70
10149;DHT22;5115;50.920;6.376;2023-07-08T13:40:47;35.30;74.40
10149;DHT22;5115;50.920;6.376;2023-07-08T13:43:14;35.20;75.50
10149;DHT22;5115;50.920;6.376;2023-07-08T13:45:44;35.00;73.90
10149;DHT22;5115;50.920;6.376;2023-07-08T13:48:42;35.10;74.80
10149;DHT22;5115;50.920;6.376;2023-07-08T13:51:18;35.00;74.90
10149;DHT22;5115;50.920;6.376;2023-07-08T13:56:20;35.00;74.70
10149;DHT22;5115;50.920;6.376;2023-07-08T13:58:50;35.00;74.40
10149;DHT22;5115;50.920;6.376;2023-07-08T14:01:22;34.90;74.20
10149;DHT22;5115;50.920;6.376;2023-07-08T14:03:48;34.90;74.50
10149;DHT22;5115;50.920;6.376;2023-07-08T14:06:19;35.00;74.40
10149;DHT22;5115;50.920;6.376;2023-07-08T14:08:45;35.20;75.60
10149;DHT22;5115;50.920;6.376;2023-07-08T14:11:10;35.10;74.80
10149;DHT22;5115;50.920;6.376;2023-07-08T14:13:36;35.20;75.00
10149;DHT22;5115;50.920;6.376;2023-07-08T14:16:03;35.20;74.00
10149;DHT22;5115;50.920;6.376;2023-07-08T14:18:31;35.10;75.30
10149;DHT22;5115;50.920;6.376;2023-07-08T14:20:57;35.20;75.20
10149;DHT22;5115;50.920;6.376;2023-07-08T14:23:24;35.10;74.70
10149;DHT22;5115;50.920;6.376;2023-07-08T14:25:49;35.10;76.20
10149;DHT22;5115;50.920;6.376;2023-07-08T14:28:15;35.00;75.70
10149;DHT22;5115;50.920;6.376;2023-07-08T14:30:44;35.10;74.70
10149;DHT22;5115;50.920;6.376;2023-07-08T14:33:11;35.10;74.90
10149;DHT22;5115;50.920;6.376;2023-07-08T14:35:37;35.00;76.40
10149;DHT22;5115;50.920;6.376;2023-07-08T14:38:11;34.80;75.70
10149;DHT22;5115;50.920;6.376;2023-07-08T14:40:40;34.90;75.50
10149;DHT22;5115;50.920;6.376;2023-07-08T14:43:13;35.00;76.40
10149;DHT22;5115;50.920;6.376;2023-07-08T14:45:42;35.20;75.70
10149;DHT22;5115;50.920;6.376;2023-07-08T14:48:10;35.30;75.20
10149;DHT22;5115;50.920;6.376;2023-07-08T14:50:36;35.30;76.70
10149;DHT22;5115;50.920;6.376;2023-07-08T14:53:02;35.30;75.10
10149;DHT22;5115;50.920;6.376;2023-07-08T14:55:28;35.40;75.20
10149;DHT22;5115;50.920;6.376;2023-07-08T14:57:54;35.40;76.70
10149;DHT22;5115;50.920;6.376;2023-07-08T15:00:21;35.50;77.70
10149;DHT22;5115;50.920;6.376;2023-07-08T15:02:49;35.60;78.60
10149;DHT22;5115;50.920;6.376;2023-07-08T15:05:25;35.60;79.90
10149;DHT22;5115;50.920;6.376;2023-07-08T15:07:54;35.70;78.00
10149;DHT22;5115;50.920;6.376;2023-07-08T15:10:21;35.70;78.00
10149;DHT22;5115;50.920;6.376;2023-07-08T15:12:48;35.60;79.10
10149;DHT22;5115;50.920;6.376;2023-07-08T15:17:41;35.40;78.50
10149;DHT22;5115;50.920;6.376;2023-07-08T15:20:12;35.40;79.10
10149;DHT22;5115;50.920;6.376;2023-07-08T15:22:38;35.30;80.30
10149;DHT22;5115;50.920;6.376;2023-07-08T15:25:05;35.10;81.10
10149;DHT22;5115;50.920;6.376;2023-07-08T15:27:31;34.90;81.70
10149;DHT22;5115;50.920;6.376;2023-07-08T15:29:57;34.80;82.20
10149;DHT22;5115;50.920;6.376;2023-07-08T15:32:23;34.60;81.80
10149;DHT22;5115;50.920;6.376;2023-07-08T15:34:48;34.60;83.30
10149;DHT22;5115;50.920;6.376;2023-07-08T15:37:14;34.50;84.70
10149;DHT22;5115;50.920;6.376;2023-07-08T15:39:39;34.40;82.70
10149;DHT22;5115;50.920;6.376;2023-07-08T15:42:11;34.40;83.10
10149;DHT22;5115;50.920;6.376;2023-07-08T15:44:37;34.40;84.80
10149;DHT22;5115;50.920;6.376;2023-07-08T15:47:02;34.40;84.30
10149;DHT22;5115;50.920;6.376;2023-07-08T15:49:28;34.60;85.10
10149;DHT22;5115;50.920;6.376;2023-07-08T15:51:56;34.60;85.30
10149;DHT22;5115;50.920;6.376;2023-07-08T15:54:21;34.80;85.70
10149;DHT22;5115;50.920;6.376;2023-07-08T15:56:49;34.70;85.60
10149;DHT22;5115;50.920;6.376;2023-07-08T15:59:17;34.50;85.00
10149;DHT22;5115;50.920;6.376;2023-07-08T16:01:44;34.60;84.50
10149;DHT22;5115;50.920;6.376;2023-07-08T16:04:24;34.60;84.50
10149;DHT22;5115;50.920;6.376;2023-07-08T16:06:50;34.80;84.20
10149;DHT22;5115;50.920;6.376;2023-07-08T16:09:16;34.90;84.60
10149;DHT22;5115;50.920;6.376;2023-07-08T16:11:42;34.80;84.70
10149;DHT22;5115;50.920;6.376;2023-07-08T16:14:12;34.80;83.80
10149;DHT22;5115;50.920;6.376;2023-07-08T16:16:39;34.90;83.40
10149;DHT22;5115;50.920;6.376;2023-07-08T16:19:04;35.00;81.00
10149;DHT22;5115;50.920;6.376;2023-07-08T16:21:30;35.00;80.20
10149;DHT22;5115;50.920;6.376;2023-07-08T16:23:55;35.10;80.20
10149;DHT22;5115;50.920;6.376;2023-07-08T16:26:21;35.00;80.60
10149;DHT22;5115;50.920;6.376;2023-07-08T16:28:48;34.90;80.00
10149;DHT22;5115;50.920;6.376;2023-07-08T16:31:19;34.80;79.40
10149;DHT22;5115;50.920;6.376;2023-07-08T16:33:45;34.80;78.80
10149;DHT22;5115;50.920;6.376;2023-07-08T16:36:13;34.90;82.10
10149;DHT22;5115;50.920;6.376;2023-07-08T16:38:39;34.80;78.70
10149;DHT22;5115;50.920;6.376;2023-07-08T16:41:06;34.90;79.70
10149;DHT22;5115;50.920;6.376;2023-07-08T16:43:33;34.90;79.10
10149;DHT22;5115;50.920;6.376;2023-07-08T16:45:59;34.90;77.50
10149;DHT22;5115;50.920;6.376;2023-07-08T16:48:24;34.80;78.20
10149;DHT22;5115;50.920;6.376;2023-07-08T16:50:50;34.80;81.50
10149;DHT22;5115;50.920;6.376;2023-07-08T16:53:16;34.80;82.80
10149;DHT22;5115;50.920;6.376;2023-07-08T16:55:41;34.70;85.00
10149;DHT22;5115;50.920;6.376;2023-07-08T16:58:09;34.60;86.10
10149;DHT22;5115;50.920;6.376;2023-07-08T17:00:35;34.50;85.30
10149;DHT22;5115;50.920;6.376;2023-07-08T17:03:01;34.40;85.40
10149;DHT22;5115;50.920;6.376;2023-07-08T17:05:32;34.30;85.70
10149;DHT22;5115;50.920;6.376;2023-07-08T17:07:59;34.30;84.70